createdAt,value
2019-02-07T00:01:11.800Z,2.33
2019-02-07T00:03:40.947Z,2.77
2019-02-07T00:06:10.076Z,2.60
2019-02-07T00:08:39.102Z,2.53
2019-02-07T00:11:08.151Z,2.60
2019-02-07T00:13:37.201Z,2.80
2019-02-07T00:16:06.275Z,2.50
2019-02-07T00:18:35.320Z,3.10
2019-02-07T00:21:04.350Z,2.73
2019-02-07T00:23:33.407Z,2.63
2019-02-07T00:26:02.454Z,2.50
2019-02-07T00:28:31.494Z,2.50
2019-02-07T00:31:00.565Z,2.40
2019-02-07T00:33:29.674Z,2.47
2019-02-07T00:35:58.725Z,2.60
2019-02-07T00:38:27.758Z,2.70
2019-02-07T00:40:56.852Z,2.37
2019-02-07T00:43:25.899Z,2.60
2019-02-07T00:45:54.965Z,2.53
2019-02-07T00:48:24.008Z,2.57
2019-02-07T00:50:53.018Z,2.40
2019-02-07T00:53:22.036Z,2.50
2019-02-07T00:55:51.086Z,2.53
2019-02-07T00:58:20.127Z,2.60
2019-02-07T01:00:49.414Z,2.40
2019-02-07T01:03:18.413Z,2.37
2019-02-07T01:05:47.382Z,2.50
2019-02-07T01:08:16.331Z,2.30
2019-02-07T01:10:45.323Z,2.50
2019-02-07T01:13:14.438Z,2.70
2019-02-07T01:15:43.415Z,2.00
2019-02-07T01:18:12.359Z,2.43
2019-02-07T01:20:41.545Z,2.47
2019-02-07T01:23:10.688Z,2.50
2019-02-07T01:25:40.106Z,2.40
2019-02-07T01:28:09.162Z,2.20
2019-02-07T01:30:38.210Z,2.57
2019-02-07T01:33:07.233Z,1.80
2019-02-07T01:35:36.672Z,2.20
2019-02-07T01:38:05.720Z,2.43
2019-02-07T01:40:34.765Z,2.30
2019-02-07T01:43:03.794Z,2.03
2019-02-07T01:45:32.846Z,2.17
2019-02-07T01:48:01.914Z,2.03
2019-02-07T01:50:31.248Z,2.00
2019-02-07T01:53:00.366Z,1.97
2019-02-07T01:55:29.354Z,2.00
2019-02-07T01:57:58.465Z,2.10
2019-02-07T02:00:27.609Z,1.90
2019-02-07T02:02:56.674Z,2.00
2019-02-07T02:05:25.773Z,2.10
2019-02-07T02:07:54.897Z,1.70
2019-02-07T02:10:25.812Z,2.00
2019-02-07T02:12:54.843Z,1.90
2019-02-07T02:15:25.249Z,1.80
2019-02-07T02:17:54.432Z,1.83
2019-02-07T02:20:24.263Z,1.97
2019-02-07T02:22:54.034Z,1.70
2019-02-07T02:25:23.111Z,1.87
2019-02-07T02:27:52.237Z,1.60
2019-02-07T02:30:26.248Z,1.80
2019-02-07T02:32:55.310Z,1.70
2019-02-07T02:35:24.465Z,1.67
2019-02-07T02:37:53.511Z,1.63
2019-02-07T02:40:22.646Z,1.60
2019-02-07T02:42:51.678Z,1.83
2019-02-07T02:45:22.232Z,1.67
2019-02-07T02:47:51.241Z,1.80
2019-02-07T02:50:20.536Z,1.50
2019-02-07T02:52:49.601Z,1.80
2019-02-07T02:55:46.465Z,1.57
2019-02-07T02:58:15.571Z,1.50
2019-02-07T03:01:12.433Z,1.70
2019-02-07T03:03:53.494Z,1.50
2019-02-07T03:06:34.700Z,1.70
2019-02-07T03:09:13.278Z,1.53
2019-02-07T03:11:58.088Z,1.70
2019-02-07T03:14:45.263Z,1.47
2019-02-07T03:17:33.520Z,1.30
2019-02-07T03:20:30.734Z,1.53
2019-02-07T03:23:18.767Z,1.50
2019-02-07T03:26:05.068Z,1.50
2019-02-07T03:28:51.872Z,1.53
2019-02-07T03:31:38.383Z,1.20
2019-02-07T03:34:29.484Z,1.53
2019-02-07T03:37:17.605Z,1.30
2019-02-07T03:40:11.504Z,1.40
2019-02-07T03:42:59.610Z,1.40
2019-02-07T03:45:44.184Z,1.10
2019-02-07T03:48:35.039Z,1.20
2019-02-07T03:51:22.102Z,1.37
2019-02-07T03:54:09.060Z,1.40
2019-02-07T03:56:52.834Z,1.10
2019-02-07T03:59:43.757Z,1.03
2019-02-07T04:02:40.652Z,1.00
2019-02-07T04:05:27.381Z,1.20
2019-02-07T04:08:24.171Z,1.13
2019-02-07T04:11:21.586Z,1.30
2019-02-07T04:14:09.694Z,1.00
2019-02-07T04:17:12.735Z,1.07
2019-02-07T04:20:03.838Z,1.00
2019-02-07T04:22:47.273Z,0.90
2019-02-07T04:25:44.319Z,0.80
2019-02-07T04:28:41.194Z,0.97
2019-02-07T04:31:27.893Z,0.80
2019-02-07T04:34:19.040Z,1.03
2019-02-07T04:37:23.750Z,0.73
2019-02-07T04:40:12.516Z,0.87
2019-02-07T04:42:49.189Z,0.70
2019-02-07T04:45:46.162Z,0.70
2019-02-07T04:48:32.884Z,0.77
2019-02-07T04:51:20.975Z,0.70
2019-02-07T04:54:21.039Z,1.00
2019-02-07T04:57:07.550Z,0.97
2019-02-07T05:00:01.716Z,0.87
2019-02-07T05:02:48.624Z,0.80
2019-02-07T05:05:45.792Z,0.80
2019-02-07T05:08:43.162Z,0.70
2019-02-07T05:11:23.337Z,0.80
2019-02-07T05:14:09.778Z,0.77
2019-02-07T05:16:52.235Z,0.63
2019-02-07T05:19:39.019Z,0.90
2019-02-07T05:22:32.842Z,0.70
2019-02-07T05:25:19.368Z,0.60
2019-02-07T05:27:59.055Z,0.80
2019-02-07T05:30:47.178Z,0.60
2019-02-07T05:33:47.383Z,0.60
2019-02-07T05:36:34.096Z,0.70
2019-02-07T05:39:13.743Z,0.80
2019-02-07T05:42:04.679Z,0.70
2019-02-07T05:44:59.370Z,85.33
2019-02-07T05:47:56.634Z,92.10
2019-02-07T05:50:38.498Z,91.07
2019-02-07T05:53:25.292Z,85.20
2019-02-07T05:56:06.081Z,81.63
2019-02-07T05:58:48.389Z,79.53
2019-02-07T06:01:36.583Z,73.67
2019-02-07T06:04:23.897Z,72.00
2019-02-07T06:07:10.486Z,71.13
2019-02-07T06:10:13.843Z,70.17
2019-02-07T06:12:59.697Z,65.40
2019-02-07T06:15:57.073Z,60.57
2019-02-07T06:18:54.096Z,56.87
2019-02-07T06:21:42.190Z,53.97
2019-02-07T06:24:29.127Z,50.67
2019-02-07T06:27:26.327Z,50.23
2019-02-07T06:30:17.178Z,50.00
2019-02-07T06:33:04.181Z,53.78
2019-02-07T06:35:41.769Z,47.30
2019-02-07T06:38:29.870Z,45.37
2019-02-07T06:41:10.419Z,45.50
2019-02-07T06:43:52.526Z,43.97
2019-02-07T06:46:47.429Z,40.80
2019-02-07T06:49:35.523Z,40.17
2019-02-07T06:52:13.273Z,40.57
2019-02-07T06:55:01.374Z,40.60
2019-02-07T06:57:58.341Z,37.60
2019-02-07T07:00:56.624Z,37.87
2019-02-07T07:03:48.014Z,37.00
2019-02-07T07:06:51.648Z,36.50
2019-02-07T07:09:45.842Z,35.07
2019-02-07T07:12:23.745Z,34.97
2019-02-07T07:15:17.869Z,33.93
2019-02-07T07:18:09.032Z,31.57
2019-02-07T07:20:59.500Z,31.27
2019-02-07T07:23:38.418Z,30.77
2019-02-07T07:26:25.087Z,28.20
2019-02-07T07:29:25.420Z,28.47
2019-02-07T07:32:07.869Z,27.97
2019-02-07T07:34:59.083Z,27.20
2019-02-07T07:37:47.155Z,27.37
2019-02-07T07:40:49.135Z,27.50
2019-02-07T07:43:35.967Z,25.60
2019-02-07T07:46:22.920Z,27.07
2019-02-07T07:49:15.433Z,24.20
2019-02-07T07:52:06.947Z,24.80
2019-02-07T07:55:00.961Z,25.03
2019-02-07T07:58:07.320Z,22.77
2019-02-07T08:01:07.561Z,21.40
2019-02-07T08:03:58.585Z,21.60
2019-02-07T08:06:46.736Z,20.53
2019-02-07T08:09:40.760Z,20.67
2019-02-07T08:12:31.626Z,20.53
2019-02-07T08:15:07.540Z,19.33
2019-02-07T08:17:48.514Z,19.47
2019-02-07T08:20:42.434Z,20.37
2019-02-07T08:23:42.589Z,18.63
2019-02-07T08:26:34.944Z,18.77
2019-02-07T08:29:32.036Z,18.70
2019-02-07T08:32:23.142Z,17.93
2019-02-07T08:35:09.641Z,17.33
2019-02-07T08:37:46.377Z,15.37
2019-02-07T08:40:37.908Z,17.40
2019-02-07T08:43:44.034Z,15.83
2019-02-07T08:46:43.876Z,15.07
2019-02-07T08:49:34.977Z,14.77
2019-02-07T08:52:26.089Z,14.97
2019-02-07T08:55:12.617Z,15.80
2019-02-07T08:58:00.704Z,15.13
2019-02-07T09:00:41.896Z,13.93
2019-02-07T09:03:17.340Z,14.77
2019-02-07T09:06:20.733Z,14.97
2019-02-07T09:09:11.996Z,13.77
2019-02-07T09:11:53.251Z,12.37
2019-02-07T09:14:53.374Z,14.30
2019-02-07T09:17:35.422Z,12.13
2019-02-07T09:20:26.873Z,12.37
2019-02-07T09:23:16.345Z,11.60
2019-02-07T09:26:14.770Z,12.67
2019-02-07T09:29:01.668Z,11.67
2019-02-07T09:31:52.984Z,11.40
2019-02-07T09:34:39.922Z,11.20
2019-02-07T09:37:43.802Z,11.20
2019-02-07T09:40:33.009Z,11.33
2019-02-07T09:43:36.542Z,10.73
2019-02-07T09:46:23.216Z,10.93
2019-02-07T09:49:11.337Z,10.37
2019-02-07T09:51:54.329Z,11.27
2019-02-07T09:54:44.261Z,9.97
2019-02-07T09:57:32.489Z,9.63
2019-02-07T10:00:22.140Z,9.47
2019-02-07T10:03:00.151Z,9.50
2019-02-07T10:05:51.047Z,9.13
2019-02-07T10:08:37.606Z,9.40
2019-02-07T10:11:21.732Z,8.20
2019-02-07T10:14:08.291Z,9.17
2019-02-07T10:16:58.955Z,8.23
2019-02-07T10:19:52.415Z,7.83
2019-02-07T10:22:39.067Z,9.30
2019-02-07T10:25:25.614Z,9.40
2019-02-07T10:28:13.726Z,8.43
2019-02-07T10:31:01.799Z,7.73
2019-02-07T10:33:52.954Z,8.33
2019-02-07T10:36:43.872Z,7.57
2019-02-07T10:39:30.178Z,8.17
2019-02-07T10:42:09.682Z,7.20
2019-02-07T10:44:56.378Z,7.60
2019-02-07T10:47:54.978Z,6.93
2019-02-07T10:50:43.693Z,7.37
2019-02-07T10:53:49.951Z,6.83
2019-02-07T10:56:32.189Z,6.87
2019-02-07T10:59:20.322Z,7.33
2019-02-07T11:02:06.922Z,6.57
2019-02-07T11:05:13.239Z,6.33
2019-02-07T11:07:59.986Z,6.27
2019-02-07T11:10:56.443Z,6.33
2019-02-07T11:13:43.469Z,5.77
2019-02-07T11:16:30.466Z,5.80
2019-02-07T11:19:21.771Z,5.27
2019-02-07T11:22:08.475Z,5.80
2019-02-07T11:25:02.367Z,4.87
2019-02-07T11:27:46.685Z,5.10
2019-02-07T11:30:36.012Z,5.40
2019-02-07T11:33:24.101Z,4.47
2019-02-07T11:36:21.619Z,5.20
2019-02-07T11:39:08.638Z,5.27
2019-02-07T11:42:00.036Z,5.03
2019-02-07T11:44:37.330Z,4.63
2019-02-07T11:47:37.426Z,5.40
2019-02-07T11:50:22.084Z,5.07
2019-02-07T11:53:19.113Z,4.67
2019-02-07T11:56:19.481Z,4.37
2019-02-07T11:59:09.166Z,4.83
2019-02-07T12:02:09.184Z,4.70
2019-02-07T12:04:54.674Z,4.17
2019-02-07T12:07:31.859Z,4.17
2019-02-07T12:10:12.122Z,4.03
2019-02-07T12:13:06.744Z,4.43
2019-02-07T12:16:09.788Z,4.07
2019-02-07T12:18:53.986Z,4.50
2019-02-07T12:21:42.106Z,4.43
2019-02-07T12:24:30.178Z,4.43
2019-02-07T12:27:10.556Z,3.60
2019-02-07T12:29:54.900Z,3.57
2019-02-07T12:32:44.784Z,3.87
2019-02-07T12:35:29.181Z,3.90
2019-02-07T12:38:16.212Z,3.63
2019-02-07T12:41:04.302Z,3.23
2019-02-07T12:43:51.257Z,3.20
2019-02-07T12:46:38.534Z,3.73
2019-02-07T12:49:29.224Z,3.50
2019-02-07T12:52:17.952Z,3.30
2019-02-07T12:55:07.352Z,3.53
2019-02-07T12:57:55.494Z,3.20
2019-02-07T13:00:42.110Z,3.10
2019-02-07T13:03:28.519Z,3.00
2019-02-07T13:06:15.418Z,3.07
2019-02-07T13:09:02.556Z,3.27
2019-02-07T13:11:51.163Z,3.13
2019-02-07T13:14:44.475Z,2.80
2019-02-07T13:17:25.003Z,2.80
2019-02-07T13:20:13.186Z,3.13
2019-02-07T13:22:58.471Z,3.40
2019-02-07T13:25:45.046Z,3.10
2019-02-07T13:28:33.234Z,2.47
2019-02-07T13:31:32.537Z,3.00
2019-02-07T13:34:23.275Z,2.77
2019-02-07T13:37:09.958Z,2.77
2019-02-07T13:39:56.889Z,2.13
2019-02-07T13:42:43.765Z,2.40
2019-02-07T13:45:30.485Z,2.80
2019-02-07T13:48:24.621Z,2.50
2019-02-07T13:51:11.577Z,2.27
2019-02-07T13:53:59.463Z,1.97
2019-02-07T13:56:45.901Z,2.47
2019-02-07T13:59:31.731Z,2.20
2019-02-07T14:02:14.857Z,2.17
2019-02-07T14:05:02.963Z,2.57
2019-02-07T14:07:49.642Z,2.53
2019-02-07T14:10:41.789Z,2.03
2019-02-07T14:13:28.818Z,2.07
2019-02-07T14:16:06.687Z,2.23
2019-02-07T14:18:49.914Z,2.07
2019-02-07T14:21:31.381Z,1.97
2019-02-07T14:24:06.714Z,2.30
2019-02-07T14:26:53.642Z,2.07
2019-02-07T14:29:47.671Z,1.70
2019-02-07T14:32:42.016Z,2.23
2019-02-07T14:35:30.011Z,2.40
2019-02-07T14:38:23.752Z,1.90
2019-02-07T14:41:10.441Z,2.17
2019-02-07T14:44:13.954Z,2.13
2019-02-07T14:46:48.032Z,1.90
2019-02-07T14:49:17.125Z,1.97
2019-02-07T14:51:46.174Z,2.30
2019-02-07T14:54:15.506Z,2.10
2019-02-07T14:56:44.552Z,1.63
2019-02-07T14:59:13.613Z,1.97
2019-02-07T15:01:42.634Z,1.87
2019-02-07T15:07:16.446Z,2.87
2019-02-07T15:09:45.523Z,3.10
2019-02-07T15:12:14.516Z,2.87
2019-02-07T15:14:43.556Z,2.83
2019-02-07T15:17:12.903Z,3.00
2019-02-07T15:19:41.920Z,2.63
2019-02-07T15:22:10.946Z,2.47
2019-02-07T15:24:39.972Z,3.03
2019-02-07T15:27:08.952Z,3.30
2019-02-07T15:29:37.957Z,3.47
2019-02-07T15:32:06.980Z,3.93
2019-02-07T15:34:36.000Z,3.73
2019-02-07T15:37:05.051Z,3.13
2019-02-07T15:39:34.094Z,3.10
2019-02-07T15:42:16.552Z,3.53
2019-02-07T15:44:45.536Z,2.97
2019-02-07T15:47:14.575Z,2.97
2019-02-07T15:49:43.611Z,2.80
2019-02-07T15:52:12.773Z,2.70
2019-02-07T15:54:41.891Z,2.40
2019-02-07T15:57:10.925Z,3.03
2019-02-07T15:59:45.208Z,2.70
2019-02-07T16:02:24.076Z,2.30
2019-02-07T16:04:53.196Z,2.77
2019-02-07T16:07:22.236Z,3.40
2019-02-07T16:09:51.214Z,2.83
2019-02-07T16:12:20.360Z,3.43
2019-02-07T16:14:49.382Z,3.17
2019-02-07T16:17:18.432Z,3.07
2019-02-07T16:19:47.522Z,3.10
2019-02-07T16:22:16.605Z,3.30
2019-02-07T16:24:45.658Z,2.90
2019-02-07T16:27:14.800Z,3.10
2019-02-07T16:29:43.833Z,2.80
2019-02-07T16:32:12.894Z,2.60
2019-02-07T16:34:41.927Z,3.37
2019-02-07T16:37:11.171Z,3.30
2019-02-07T16:39:40.235Z,2.77
2019-02-07T16:42:09.412Z,3.43
2019-02-07T16:44:38.417Z,3.17
2019-02-07T16:47:07.472Z,2.77
2019-02-07T16:49:36.514Z,3.07
2019-02-07T16:52:05.581Z,3.07
2019-02-07T16:54:34.707Z,3.13
2019-02-07T16:57:03.769Z,2.93
2019-02-07T16:59:33.149Z,3.20
2019-02-07T17:02:02.277Z,4.00
2019-02-07T17:04:31.448Z,3.07
2019-02-07T17:07:00.542Z,2.97
2019-02-07T17:09:44.178Z,3.50
2019-02-07T17:12:13.616Z,3.30
2019-02-07T17:14:42.674Z,3.33
2019-02-07T17:17:11.679Z,2.87
2019-02-07T17:19:40.691Z,3.30
2019-02-07T17:22:09.794Z,3.47
2019-02-07T17:24:38.885Z,3.00
2019-02-07T17:27:08.061Z,2.83
2019-02-07T17:29:37.100Z,3.40
2019-02-07T17:32:06.227Z,3.50
2019-02-07T17:34:35.268Z,3.70
2019-02-07T17:37:04.302Z,3.27
2019-02-07T17:39:33.306Z,3.17
2019-02-07T17:42:02.811Z,3.87
2019-02-07T17:44:31.927Z,3.03
2019-02-07T17:47:01.101Z,4.73
2019-02-07T17:49:30.138Z,3.73
2019-02-07T17:51:59.233Z,3.37
2019-02-07T17:54:28.240Z,3.23
2019-02-07T17:56:57.680Z,3.50
2019-02-07T17:59:26.728Z,3.10
2019-02-07T18:01:55.920Z,2.83
2019-02-07T18:04:24.953Z,3.30
2019-02-07T18:06:54.109Z,2.90
2019-02-07T18:09:23.206Z,3.17
2019-02-07T18:11:52.218Z,4.23
2019-02-07T18:14:21.285Z,3.20
2019-02-07T18:16:50.315Z,3.87
2019-02-07T18:19:19.363Z,3.13
2019-02-07T18:21:48.321Z,3.30
2019-02-07T18:24:17.315Z,3.37
2019-02-07T18:26:46.405Z,3.40
2019-02-07T18:29:15.711Z,3.00
2019-02-07T18:31:44.724Z,3.30
2019-02-07T18:34:13.893Z,3.43
2019-02-07T18:36:42.930Z,3.43
2019-02-07T18:39:12.002Z,3.70
2019-02-07T18:41:41.057Z,3.50
2019-02-07T18:44:10.383Z,3.53
2019-02-07T18:46:39.737Z,3.87
2019-02-07T18:49:08.790Z,4.70
2019-02-07T18:51:45.253Z,3.10
2019-02-07T18:54:08.520Z,3.10
2019-02-07T18:56:37.618Z,3.30
2019-02-07T18:59:06.655Z,3.17
2019-02-07T19:01:35.702Z,3.73
2019-02-07T19:04:04.741Z,3.20
2019-02-07T19:06:33.812Z,2.97
2019-02-07T19:09:03.796Z,3.40
2019-02-07T19:11:32.942Z,3.23
2019-02-07T19:14:01.998Z,3.50
2019-02-07T19:16:31.163Z,3.00
2019-02-07T19:19:00.191Z,3.63
2019-02-07T19:21:29.265Z,3.37
2019-02-07T19:23:58.300Z,3.70
2019-02-07T19:26:27.323Z,3.37
2019-02-07T19:28:56.404Z,3.67
2019-02-07T19:31:25.711Z,3.80
2019-02-07T19:33:54.740Z,3.50
2019-02-07T19:36:23.754Z,4.50
2019-02-07T19:38:52.771Z,3.40
2019-02-07T19:41:21.789Z,3.10
2019-02-07T19:43:50.872Z,4.00
2019-02-07T19:46:19.872Z,3.53
2019-02-07T19:48:48.855Z,3.87
2019-02-07T19:51:17.898Z,3.53
2019-02-07T19:53:47.117Z,3.50
2019-02-07T19:56:16.243Z,3.63
2019-02-07T19:58:45.298Z,3.93
2019-02-07T20:01:14.662Z,3.53
2019-02-07T20:03:43.982Z,3.27
2019-02-07T20:06:13.057Z,4.40
2019-02-07T20:08:42.054Z,3.43
2019-02-07T20:11:11.041Z,3.87
2019-02-07T20:13:40.040Z,4.30
2019-02-07T20:16:09.063Z,3.53
2019-02-07T20:18:38.323Z,3.80
2019-02-07T20:21:07.351Z,3.23
2019-02-07T20:23:39.170Z,4.00
2019-02-07T20:26:07.105Z,3.47
2019-02-07T20:28:36.123Z,3.30
2019-02-07T20:31:05.168Z,4.33
2019-02-07T20:33:34.225Z,3.83
2019-02-07T20:36:03.569Z,3.43
2019-02-07T20:38:32.554Z,3.00
2019-02-07T20:41:01.540Z,3.63
2019-02-07T20:43:30.560Z,5.10
2019-02-07T20:45:59.616Z,3.93
2019-02-07T20:48:28.635Z,3.93
2019-02-07T20:50:57.787Z,3.90
2019-02-07T20:53:27.266Z,3.70
2019-02-07T20:55:56.652Z,3.37
2019-02-07T20:58:25.714Z,3.60
2019-02-07T21:00:54.804Z,2.70
2019-02-07T21:03:23.879Z,3.73
2019-02-07T21:05:52.882Z,3.20
2019-02-07T21:08:21.871Z,3.00
2019-02-07T21:10:51.247Z,3.53
2019-02-07T21:13:20.422Z,3.00
2019-02-07T21:15:49.471Z,3.10
2019-02-07T21:18:18.701Z,3.30
2019-02-07T21:20:47.758Z,3.20
2019-02-07T21:23:36.313Z,4.33
2019-02-07T21:26:05.453Z,3.67
2019-02-07T21:28:35.834Z,4.07
2019-02-07T21:31:04.899Z,3.03
2019-02-07T21:33:34.003Z,5.57
2019-02-07T21:36:03.153Z,4.23
2019-02-07T21:38:32.452Z,3.57
2019-02-07T21:41:01.477Z,4.07
2019-02-07T21:43:30.469Z,3.63
2019-02-07T21:45:59.465Z,3.30
2019-02-07T21:48:28.841Z,3.27
2019-02-07T21:51:08.271Z,3.60
2019-02-07T21:53:37.645Z,3.70
2019-02-07T21:56:06.662Z,3.33
2019-02-07T21:58:35.775Z,3.67
2019-02-07T22:01:06.338Z,3.87
2019-02-07T22:03:35.347Z,3.97
2019-02-07T22:06:04.403Z,3.03
2019-02-07T22:08:33.754Z,2.73
2019-02-07T22:11:02.907Z,4.40
2019-02-07T22:13:31.954Z,3.17
2019-02-07T22:16:01.066Z,3.47
2019-02-07T22:18:30.118Z,3.50
2019-02-07T22:20:59.150Z,3.67
2019-02-07T22:23:28.198Z,3.87
2019-02-07T22:25:57.202Z,3.53
2019-02-07T22:28:26.267Z,4.77
2019-02-07T22:30:55.358Z,3.87
2019-02-07T22:33:35.930Z,3.23
2019-02-07T22:36:05.079Z,4.40
2019-02-07T22:38:34.342Z,3.63
2019-02-07T22:41:03.424Z,4.13
2019-02-07T22:43:32.472Z,4.10
2019-02-07T22:46:01.560Z,3.90
2019-02-07T22:48:30.565Z,4.93
2019-02-07T22:50:59.523Z,4.10
2019-02-07T22:53:28.871Z,4.10
2019-02-07T22:55:57.924Z,4.43
2019-02-07T22:58:26.925Z,3.30
2019-02-07T23:01:15.843Z,3.23
2019-02-07T23:03:53.023Z,3.27
2019-02-07T23:06:22.116Z,3.50
2019-02-07T23:08:51.185Z,3.07
2019-02-07T23:11:20.336Z,3.30
2019-02-07T23:13:49.433Z,3.30
2019-02-07T23:16:18.616Z,3.23
2019-02-07T23:18:47.977Z,3.50
2019-02-07T23:21:17.096Z,4.80
2019-02-07T23:23:46.148Z,3.53
2019-02-07T23:26:15.172Z,3.40
2019-02-07T23:28:44.353Z,3.27
2019-02-07T23:31:13.490Z,3.17
2019-02-07T23:33:42.924Z,3.50
2019-02-07T23:36:12.015Z,3.37
2019-02-07T23:38:41.077Z,3.87
2019-02-07T23:41:10.599Z,3.73
2019-02-07T23:43:45.980Z,3.30
2019-02-07T23:46:11.229Z,3.40
2019-02-07T23:48:40.366Z,3.70
2019-02-07T23:51:09.406Z,4.10
2019-02-07T23:53:38.367Z,3.87
2019-02-07T23:56:07.770Z,3.33
2019-02-07T23:58:36.848Z,4.20
